Time;durP1;ratioP1;P1;durP2;ratioP2;P2;SDS_P1;SDS_P2;PMS_P1;PMS_P2;Temp;Humidity;BMP_temperature;BMP_pressure;BME280_temperature;BME280_humidity;BME280_pressure;Samples;Min_cycle;Max_cycle;Signal;HPM_P1;HPM_P2
2022/07/11 00:01:42;;;;;;;2.38;1.00;;;15.20;99.90;;;;;;6126068;23;20173;-70
2022/07/11 00:04:08;;;;;;;1.02;0.85;;;15.10;99.90;;;;;;6126082;23;20603;-69
2022/07/11 00:06:34;;;;;;;3.42;0.95;;;15.10;99.90;;;;;;6126123;23;20492;-69
2022/07/11 00:08:59;;;;;;;3.97;0.88;;;15.20;99.90;;;;;;6126281;23;20644;-69
2022/07/11 00:11:25;;;;;;;2.05;0.93;;;15.20;99.90;;;;;;6125842;23;20199;-69
2022/07/11 00:13:50;;;;;;;1.10;1.05;;;15.30;99.90;;;;;;6126314;23;20146;-70
2022/07/11 00:16:16;;;;;;;1.27;0.93;;;15.30;99.90;;;;;;6126251;23;20209;-70
2022/07/11 00:18:42;;;;;;;1.60;1.15;;;15.30;99.90;;;;;;6126029;23;20177;-69
2022/07/11 00:21:07;;;;;;;1.20;0.93;;;15.20;99.90;;;;;;6126051;23;20174;-71
2022/07/11 00:23:33;;;;;;;1.10;0.88;;;15.10;99.90;;;;;;6125779;23;20213;-69
2022/07/11 00:25:59;;;;;;;1.38;0.90;;;14.90;99.90;;;;;;6125760;23;20185;-69
2022/07/11 00:28:25;;;;;;;1.42;1.10;;;14.80;99.90;;;;;;6126069;23;20150;-71
2022/07/11 00:30:52;;;;;;;0.98;0.90;;;14.80;99.90;;;;;;6125108;23;20166;-70
2022/07/11 00:33:18;;;;;;;2.58;0.80;;;14.80;99.90;;;;;;6125682;23;20287;-69
2022/07/11 00:35:44;;;;;;;0.93;0.93;;;14.90;99.90;;;;;;6126015;23;20596;-69
2022/07/11 00:38:09;;;;;;;1.20;1.10;;;14.90;99.90;;;;;;6125606;23;20233;-69
2022/07/11 00:40:35;;;;;;;1.88;1.08;;;15.00;99.90;;;;;;6125771;23;20181;-69
2022/07/11 00:43:03;;;;;;;0.82;0.82;;;15.00;99.90;;;;;;6126332;23;20196;-69
2022/07/11 00:45:29;;;;;;;2.85;1.00;;;15.10;99.90;;;;;;6125839;23;20170;-69
2022/07/11 00:47:55;;;;;;;2.50;0.93;;;15.20;99.90;;;;;;6099402;23;20660;-69
2022/07/11 00:50:21;;;;;;;1.58;1.15;;;15.10;99.90;;;;;;6125718;23;20205;-71
2022/07/11 00:52:48;;;;;;;1.20;1.20;;;15.10;99.90;;;;;;6125711;23;20146;-69
2022/07/11 00:55:13;;;;;;;1.50;1.40;;;15.00;99.90;;;;;;6125780;23;20157;-69
2022/07/11 00:57:39;;;;;;;1.30;0.95;;;14.90;99.90;;;;;;6125707;23;20614;-69
2022/07/11 01:00:06;;;;;;;2.05;0.88;;;14.90;99.90;;;;;;6125387;23;20239;-69
2022/07/11 01:02:32;;;;;;;2.58;0.82;;;15.00;99.90;;;;;;6125261;23;20154;-69
2022/07/11 01:04:58;;;;;;;1.42;1.10;;;15.00;99.90;;;;;;6125148;23;20591;-72
2022/07/11 01:07:24;;;;;;;1.17;1.00;;;15.10;99.90;;;;;;6125279;23;20146;-71
2022/07/11 01:09:50;;;;;;;1.65;1.15;;;15.20;99.90;;;;;;6125257;23;20238;-69
2022/07/11 01:12:17;;;;;;;2.17;0.85;;;15.20;99.90;;;;;;6125813;23;20153;-70
2022/07/11 01:14:55;;;;;;;1.17;1.08;;;15.10;99.90;;;;;;6125481;23;20169;-69
2022/07/11 01:17:21;;;;;;;1.23;1.00;;;15.10;99.90;;;;;;6125733;23;20224;-69
2022/07/11 01:19:46;;;;;;;1.90;1.20;;;15.20;99.90;;;;;;6125341;23;20224;-70
2022/07/11 01:22:14;;;;;;;1.30;0.90;;;15.20;99.90;;;;;;6125197;23;20197;-71
2022/07/11 01:24:41;;;;;;;1.88;0.95;;;15.10;99.90;;;;;;6099091;23;20209;-69
2022/07/11 01:27:08;;;;;;;1.52;1.15;;;15.10;99.90;;;;;;6125768;23;20515;-69
2022/07/11 01:29:34;;;;;;;1.48;0.93;;;15.20;99.90;;;;;;6124996;23;20150;-69
2022/07/11 01:31:59;;;;;;;1.65;1.30;;;15.10;99.90;;;;;;6125717;23;20492;-69
2022/07/11 01:34:25;;;;;;;1.25;0.82;;;15.20;99.90;;;;;;6125619;23;20497;-69
2022/07/11 01:36:51;;;;;;;1.08;0.93;;;15.20;99.90;;;;;;6125679;23;20607;-70
2022/07/11 01:39:16;;;;;;;1.45;0.98;;;15.20;99.90;;;;;;6125081;23;20153;-70
2022/07/11 01:41:42;;;;;;;0.93;0.93;;;15.10;99.90;;;;;;6125050;23;20476;-69
2022/07/11 01:44:07;;;;;;;1.33;1.13;;;15.10;99.90;;;;;;6125700;23;20157;-69
2022/07/11 01:46:33;;;;;;;0.80;0.80;;;15.20;99.90;;;;;;6125232;23;20662;-69
2022/07/11 01:48:59;;;;;;;2.28;1.02;;;15.20;99.90;;;;;;6124962;23;20467;-71
2022/07/11 01:51:25;;;;;;;1.00;1.00;;;15.20;99.90;;;;;;6125561;23;20545;-69
2022/07/11 01:53:51;;;;;;;1.92;1.08;;;15.20;99.90;;;;;;6125485;23;20557;-69
2022/07/11 01:56:16;;;;;;;1.13;0.93;;;15.20;99.90;;;;;;6125625;23;20154;-69
2022/07/11 01:58:42;;;;;;;2.63;1.30;;;15.20;99.90;;;;;;6125573;23;20208;-68
2022/07/11 02:01:08;;;;;;;3.20;1.10;;;15.20;99.90;;;;;;6099426;23;20570;-69
2022/07/11 02:03:33;;;;;;;1.00;0.90;;;15.20;99.90;;;;;;6125520;23;20467;-70
2022/07/11 02:05:59;;;;;;;1.45;1.05;;;15.10;99.90;;;;;;6124935;23;20181;-69
2022/07/11 02:09:14;;;;;;;0.73;0.73;;;15.00;99.90;;;;;;6124624;23;20150;-69
2022/07/11 02:11:40;;;;;;;2.50;1.20;;;14.90;99.90;;;;;;6124333;23;20166;-69
2022/07/11 02:14:05;;;;;;;2.13;1.05;;;14.90;99.90;;;;;;6125908;23;20172;-69
2022/07/11 02:16:31;;;;;;;1.35;1.15;;;15.00;99.90;;;;;;6127121;23;20150;-69
2022/07/11 02:18:57;;;;;;;1.13;1.08;;;15.00;99.90;;;;;;6126951;23;20154;-69
2022/07/11 02:21:22;;;;;;;0.80;0.80;;;15.00;99.90;;;;;;6127164;23;20252;-69
2022/07/11 02:23:48;;;;;;;2.17;1.17;;;15.00;99.90;;;;;;6127273;23;20154;-71
2022/07/11 02:26:14;;;;;;;1.70;1.27;;;15.00;99.90;;;;;;6127089;23;20181;-69
2022/07/11 02:28:40;;;;;;;1.02;1.00;;;15.10;99.90;;;;;;6126606;23;20197;-69
2022/07/11 02:31:05;;;;;;;2.05;1.23;;;15.00;99.90;;;;;;6127078;23;20507;-69
2022/07/11 02:33:31;;;;;;;1.30;1.20;;;15.00;99.90;;;;;;6127076;23;20157;-69
2022/07/11 02:35:56;;;;;;;1.42;1.10;;;15.00;99.90;;;;;;6126689;23;20157;-71
2022/07/11 02:38:22;;;;;;;0.95;0.95;;;14.90;99.90;;;;;;6126802;23;20160;-68
2022/07/11 02:40:47;;;;;;;1.15;1.10;;;15.00;99.90;;;;;;6126700;23;20244;-69
2022/07/11 02:43:14;;;;;;;1.63;1.08;;;14.90;99.90;;;;;;6127074;23;20157;-69
2022/07/11 02:45:40;;;;;;;1.30;1.20;;;14.90;99.90;;;;;;6126777;23;20170;-69
2022/07/11 02:48:06;;;;;;;3.78;1.77;;;14.90;99.90;;;;;;6126980;23;20157;-69
2022/07/11 02:50:31;;;;;;;2.47;1.10;;;14.80;99.90;;;;;;6126558;23;20170;-69
2022/07/11 02:52:57;;;;;;;1.45;1.30;;;14.80;99.90;;;;;;6126596;23;20487;-71
2022/07/11 02:55:23;;;;;;;1.40;1.30;;;14.80;99.90;;;;;;6126339;23;20159;-69
2022/07/11 02:57:48;;;;;;;2.47;1.35;;;14.80;99.90;;;;;;6127054;23;20154;-68
2022/07/11 03:00:16;;;;;;;1.50;1.40;;;14.80;99.90;;;;;;6126390;23;20174;-69
2022/07/11 03:02:42;;;;;;;1.05;0.98;;;14.90;99.90;;;;;;6126603;23;20595;-69
2022/07/11 03:05:08;;;;;;;1.65;1.30;;;14.80;99.90;;;;;;6126579;23;20277;-70
2022/07/11 03:07:33;;;;;;;1.08;0.90;;;14.80;99.90;;;;;;6126797;23;20281;-71
2022/07/11 03:09:59;;;;;;;1.55;1.08;;;14.90;99.90;;;;;;6124356;23;20226;-69
2022/07/11 03:12:25;;;;;;;0.95;0.82;;;14.90;99.90;;;;;;6125759;23;20150;-69
2022/07/11 03:14:51;;;;;;;4.10;1.30;;;14.90;99.90;;;;;;6126543;23;20150;-69
2022/07/11 03:17:17;;;;;;;1.65;1.08;;;14.90;99.90;;;;;;6100667;23;20165;-69
2022/07/11 03:19:43;;;;;;;1.48;1.20;;;15.00;99.90;;;;;;6126236;23;20174;-69
2022/07/11 03:22:10;;;;;;;1.52;1.30;;;15.00;99.90;;;;;;6126503;23;20158;-69
2022/07/11 03:24:36;;;;;;;2.28;1.33;;;15.00;99.90;;;;;;6126582;23;20157;-69
2022/07/11 03:27:02;;;;;;;3.35;1.45;;;14.90;99.90;;;;;;6126475;23;20205;-69
2022/07/11 03:29:28;;;;;;;1.27;1.15;;;15.00;99.90;;;;;;6126146;23;20236;-69
2022/07/11 03:31:53;;;;;;;1.80;1.20;;;14.90;99.90;;;;;;6126651;23;20155;-70
2022/07/11 03:34:19;;;;;;;1.10;1.02;;;14.90;99.90;;;;;;6126517;23;20244;-69
2022/07/11 03:36:46;;;;;;;1.40;1.23;;;15.00;99.90;;;;;;6126071;23;20158;-69
2022/07/11 03:39:13;;;;;;;1.83;0.90;;;15.00;99.90;;;;;;6126100;23;20232;-69
2022/07/11 03:41:38;;;;;;;1.20;1.10;;;15.10;99.90;;;;;;6126360;23;20512;-71
2022/07/11 03:44:04;;;;;;;0.98;0.93;;;15.00;99.90;;;;;;6126430;23;20217;-69
2022/07/11 03:46:30;;;;;;;1.30;1.20;;;15.10;99.90;;;;;;6125771;23;20225;-69
2022/07/11 03:48:55;;;;;;;1.63;1.20;;;15.20;99.90;;;;;;6126079;23;20150;-69
2022/07/11 03:51:21;;;;;;;2.15;1.50;;;15.20;99.90;;;;;;6126426;23;20221;-69
2022/07/11 03:53:47;;;;;;;1.00;1.00;;;15.10;99.90;;;;;;6126353;23;20150;-69
2022/07/11 03:56:12;;;;;;;1.75;1.35;;;14.90;99.90;;;;;;6126516;23;20149;-69
2022/07/11 03:58:38;;;;;;;2.58;1.48;;;14.80;99.90;;;;;;6126468;23;20155;-69
2022/07/11 04:01:04;;;;;;;1.73;1.63;;;14.70;99.90;;;;;;6125928;23;20170;-69
2022/07/11 04:03:29;;;;;;;1.63;1.00;;;14.80;99.90;;;;;;6126533;23;20154;-69
2022/07/11 04:05:55;;;;;;;2.05;1.30;;;14.80;99.90;;;;;;6125535;23;20181;-69
2022/07/11 04:08:20;;;;;;;1.10;0.98;;;14.80;99.90;;;;;;6126108;23;20150;-69
2022/07/11 04:10:46;;;;;;;1.98;1.20;;;14.90;99.90;;;;;;6125191;23;20641;-69
2022/07/11 04:13:12;;;;;;;2.25;1.38;;;14.90;99.90;;;;;;6126133;23;20151;-70
2022/07/11 04:15:37;;;;;;;1.30;1.20;;;14.90;99.90;;;;;;6126001;23;20186;-69
2022/07/11 04:18:03;;;;;;;2.65;1.33;;;14.90;99.90;;;;;;6099717;23;20154;-69
2022/07/11 04:20:29;;;;;;;1.33;1.20;;;14.90;99.90;;;;;;6125386;23;20176;-69
2022/07/11 04:22:54;;;;;;;3.17;1.13;;;14.80;99.90;;;;;;6126018;23;20485;-69
2022/07/11 04:25:20;;;;;;;3.28;1.42;;;14.80;99.90;;;;;;6125830;23;20185;-69
2022/07/11 04:27:45;;;;;;;4.05;1.35;;;14.80;99.90;;;;;;6125939;23;20143;-69
2022/07/11 04:30:11;;;;;;;1.23;1.13;;;14.90;99.90;;;;;;6125786;23;20170;-69
2022/07/11 04:32:37;;;;;;;1.65;1.05;;;14.90;99.90;;;;;;6126308;23;20174;-69
2022/07/11 04:35:03;;;;;;;1.40;1.08;;;15.10;99.90;;;;;;6125831;23;20491;-69
2022/07/11 04:37:29;;;;;;;1.38;1.20;;;15.10;99.90;;;;;;6125199;23;20146;-69
2022/07/11 04:39:55;;;;;;;1.92;1.15;;;15.10;99.90;;;;;;6125737;23;20205;-70
2022/07/11 04:42:20;;;;;;;2.83;1.15;;;15.20;99.90;;;;;;6125978;23;20146;-71
2022/07/11 04:44:46;;;;;;;1.55;1.45;;;15.20;99.90;;;;;;6099608;23;20157;-69
2022/07/11 04:47:11;;;;;;;1.30;1.10;;;15.10;99.90;;;;;;6125572;23;20237;-69
2022/07/11 04:49:37;;;;;;;2.72;1.10;;;15.00;99.90;;;;;;6125319;23;20157;-70
2022/07/11 04:52:04;;;;;;;2.38;1.05;;;15.00;99.90;;;;;;6125438;23;20237;-70
2022/07/11 04:54:29;;;;;;;0.73;0.73;;;14.90;99.90;;;;;;6125143;23;20156;-69
2022/07/11 04:56:56;;;;;;;1.67;1.20;;;14.90;99.90;;;;;;6125856;23;20178;-70
2022/07/11 04:59:23;;;;;;;1.30;1.02;;;15.00;99.90;;;;;;6125552;23;20150;-69
2022/07/11 05:01:49;;;;;;;2.20;1.00;;;15.10;99.90;;;;;;6099386;23;20205;-70
2022/07/11 05:04:15;;;;;;;0.93;0.80;;;15.20;99.90;;;;;;6125734;23;20156;-69
2022/07/11 05:06:40;;;;;;;1.13;0.88;;;15.30;99.90;;;;;;6125782;23;20202;-69
2022/07/11 05:09:07;;;;;;;1.27;1.23;;;15.30;99.90;;;;;;6126032;23;20483;-69
2022/07/11 05:11:34;;;;;;;3.92;1.05;;;15.30;99.90;;;;;;6125693;23;20233;-69
2022/07/11 05:14:00;;;;;;;0.98;0.80;;;15.10;99.90;;;;;;6125191;23;20146;-69
2022/07/11 05:16:25;;;;;;;3.03;0.60;;;15.10;99.90;;;;;;6125635;23;20165;-69
2022/07/11 05:18:51;;;;;;;1.63;0.82;;;15.00;99.90;;;;;;6125190;23;20154;-69
2022/07/11 05:21:21;;;;;;;2.30;0.95;;;15.00;99.90;;;;;;6125599;23;20245;-69
2022/07/11 05:23:47;;;;;;;2.47;1.08;;;15.10;99.90;;;;;;6125568;23;20209;-69
2022/07/11 05:26:14;;;;;;;1.08;0.98;;;15.20;99.90;;;;;;6125240;23;20635;-69
2022/07/11 05:28:40;;;;;;;1.13;0.90;;;15.40;99.90;;;;;;6125266;23;20146;-69
2022/07/11 05:31:06;;;;;;;3.67;0.80;;;15.50;99.90;;;;;;6124957;23;20181;-70
2022/07/11 05:33:31;;;;;;;0.85;0.85;;;15.60;99.90;;;;;;6125569;23;20154;-69
2022/07/11 05:35:57;;;;;;;1.40;1.00;;;15.50;99.90;;;;;;6125709;23;20150;-70
2022/07/11 05:38:22;;;;;;;1.02;0.93;;;15.40;99.90;;;;;;6125224;23;20153;-69
2022/07/11 05:40:48;;;;;;;1.20;1.10;;;15.20;99.90;;;;;;6125186;23;20173;-69
2022/07/11 05:43:13;;;;;;;1.40;1.30;;;15.00;99.90;;;;;;6125239;23;20213;-69
2022/07/11 05:45:39;;;;;;;1.35;1.25;;;15.00;99.90;;;;;;6125055;23;20177;-70
2022/07/11 05:48:05;;;;;;;1.92;1.40;;;14.80;99.90;;;;;;6124369;23;20165;-69
2022/07/11 05:50:30;;;;;;;1.90;1.77;;;14.60;99.90;;;;;;6124850;23;20251;-69
2022/07/11 05:52:57;;;;;;;1.45;1.35;;;14.50;99.90;;;;;;6125373;23;20146;-69
2022/07/11 05:55:23;;;;;;;1.30;1.30;;;14.50;99.90;;;;;;6125180;23;20225;-68
2022/07/11 05:57:49;;;;;;;2.72;1.88;;;14.40;99.90;;;;;;6125148;23;20233;-69
2022/07/11 06:00:15;;;;;;;1.77;1.58;;;14.50;99.90;;;;;;6125043;23;20536;-69
2022/07/11 06:02:44;;;;;;;2.05;1.95;;;14.80;99.90;;;;;;6125388;23;20156;-69
2022/07/11 06:05:11;;;;;;;2.65;1.63;;;15.10;99.90;;;;;;6125273;23;20181;-69
2022/07/11 06:10:21;;;;;;;1.63;1.40;;;15.70;99.90;;;;;;6125058;23;20181;-69
2022/07/11 06:12:46;;;;;;;1.92;1.33;;;15.90;99.90;;;;;;6125562;23;20154;-69
2022/07/11 06:15:12;;;;;;;0.98;0.93;;;16.20;99.90;;;;;;6125052;23;20204;-69
2022/07/11 06:17:37;;;;;;;1.95;1.40;;;16.50;99.90;;;;;;6125016;23;20154;-71
2022/07/11 06:20:03;;;;;;;1.27;1.20;;;16.80;99.90;;;;;;6124593;23;20650;-69
2022/07/11 06:22:29;;;;;;;1.40;1.30;;;17.40;99.90;;;;;;6124630;23;20146;-69
2022/07/11 06:24:54;;;;;;;3.60;1.15;;;17.90;99.90;;;;;;6124436;23;20622;-69
2022/07/11 06:27:20;;;;;;;0.93;0.93;;;18.30;99.90;;;;;;6124182;23;20174;-69
2022/07/11 06:29:46;;;;;;;1.35;1.20;;;18.30;99.90;;;;;;6124214;23;20650;-69
2022/07/11 06:32:11;;;;;;;1.40;0.50;;;18.50;99.90;;;;;;6124396;23;20428;-70
2022/07/11 06:34:37;;;;;;;2.00;1.20;;;18.50;99.90;;;;;;6124760;23;20491;-69
2022/07/11 06:37:03;;;;;;;3.60;0.70;;;18.70;99.90;;;;;;6124611;23;20603;-70
2022/07/11 06:39:29;;;;;;;1.30;0.98;;;18.70;99.90;;;;;;6124199;23;20436;-70
2022/07/11 06:41:54;;;;;;;2.00;0.80;;;18.80;99.90;;;;;;6124508;23;20185;-71
2022/07/11 06:44:20;;;;;;;1.40;0.95;;;18.90;99.90;;;;;;6124798;23;20158;-70
2022/07/11 06:46:45;;;;;;;1.90;1.00;;;19.30;99.90;;;;;;6124426;23;20558;-69
2022/07/11 06:49:13;;;;;;;0.80;0.80;;;19.20;99.90;;;;;;6124512;23;20146;-69
2022/07/11 06:51:39;;;;;;;1.30;1.20;;;19.30;99.90;;;;;;6124443;23;20166;-69
2022/07/11 06:54:05;;;;;;;1.00;1.00;;;19.60;99.90;;;;;;6124507;23;20225;-69
2022/07/11 06:56:30;;;;;;;1.13;1.02;;;19.70;99.90;;;;;;6124762;23;20592;-69
2022/07/11 06:58:56;;;;;;;1.60;1.13;;;19.90;99.90;;;;;;6124122;23;20154;-69
2022/07/11 07:01:21;;;;;;;1.33;1.05;;;19.80;99.90;;;;;;6126363;23;20593;-70
2022/07/11 07:03:47;;;;;;;2.75;1.45;;;19.90;99.90;;;;;;6126461;23;20236;-71
2022/07/11 07:06:12;;;;;;;2.72;1.30;;;19.80;99.90;;;;;;6125455;23;20182;-69
2022/07/11 07:08:38;;;;;;;3.40;1.15;;;19.80;99.90;;;;;;6126400;23;20146;-69
2022/07/11 07:11:04;;;;;;;0.85;0.85;;;19.80;99.90;;;;;;6126630;23;20709;-69
2022/07/11 07:13:30;;;;;;;3.20;1.25;;;19.80;99.90;;;;;;6126452;23;20150;-69
2022/07/11 07:15:59;;;;;;;1.70;1.30;;;19.60;99.90;;;;;;6126186;23;20620;-69
2022/07/11 07:18:25;;;;;;;1.50;1.17;;;19.60;99.90;;;;;;6126244;23;20345;-69
2022/07/11 07:20:51;;;;;;;2.35;1.23;;;19.50;99.90;;;;;;6126118;23;20170;-70
2022/07/11 07:23:18;;;;;;;2.40;1.50;;;19.60;99.90;;;;;;6125381;23;20150;-69
2022/07/11 07:25:43;;;;;;;1.75;1.27;;;19.80;99.90;;;;;;6126049;23;20182;-69
2022/07/11 07:28:09;;;;;;;1.92;1.30;;;20.00;99.90;;;;;;6126675;23;20160;-69
2022/07/11 07:30:35;;;;;;;1.38;1.27;;;20.20;99.90;;;;;;6125736;23;20170;-70
2022/07/11 07:33:01;;;;;;;1.35;1.25;;;20.50;99.90;;;;;;6125791;23;20146;-70
2022/07/11 07:35:27;;;;;;;1.98;1.30;;;20.80;99.90;;;;;;6125948;23;20614;-70
2022/07/11 07:37:53;;;;;;;1.27;1.17;;;21.10;99.90;;;;;;6126127;23;20233;-70
2022/07/11 07:40:19;;;;;;;1.95;1.10;;;21.20;99.90;;;;;;6125144;23;20674;-70
2022/07/11 07:42:44;;;;;;;1.42;1.20;;;21.20;99.90;;;;;;6125572;23;20154;-70
2022/07/11 07:45:10;;;;;;;2.10;1.63;;;21.20;99.90;;;;;;6125855;23;20244;-69
2022/07/11 07:47:36;;;;;;;1.20;1.10;;;21.30;99.90;;;;;;6125863;23;20161;-70
2022/07/11 07:50:02;;;;;;;1.10;1.10;;;21.20;99.90;;;;;;6125201;23;20177;-70
2022/07/11 07:52:28;;;;;;;2.25;1.30;;;21.20;99.90;;;;;;6125584;23;20134;-70
2022/07/11 07:54:54;;;;;;;1.20;1.10;;;21.00;99.90;;;;;;6125717;23;20592;-70
2022/07/11 07:57:19;;;;;;;2.40;1.73;;;20.70;99.90;;;;;;6125684;23;20150;-70
2022/07/11 07:59:45;;;;;;;1.80;1.10;;;20.40;99.90;;;;;;6125175;23;20220;-70
2022/07/11 08:02:10;;;;;;;1.25;1.13;;;20.20;99.90;;;;;;6125784;23;20154;-70
2022/07/11 08:04:36;;;;;;;2.15;1.85;;;20.00;99.90;;;;;;6125748;23;20158;-70
2022/07/11 08:07:02;;;;;;;1.13;1.13;;;19.90;99.90;;;;;;6125491;23;20627;-70
2022/07/11 08:09:28;;;;;;;1.83;1.42;;;19.60;99.90;;;;;;6125616;23;20146;-69
2022/07/11 08:11:54;;;;;;;1.08;1.00;;;19.50;99.90;;;;;;6125573;23;20170;-69
2022/07/11 08:14:21;;;;;;;1.55;1.42;;;19.60;99.90;;;;;;6125525;23;20626;-69
2022/07/11 08:16:47;;;;;;;1.20;1.10;;;20.00;99.90;;;;;;6125204;23;20158;-69
2022/07/11 08:19:13;;;;;;;2.85;1.10;;;20.30;99.90;;;;;;6125314;23;20216;-70
2022/07/11 08:21:39;;;;;;;1.20;1.15;;;20.80;99.90;;;;;;6125407;23;20207;-70
2022/07/11 08:24:05;;;;;;;0.88;0.88;;;21.40;99.90;;;;;;6125214;23;20599;-70
2022/07/11 08:26:31;;;;;;;1.30;1.10;;;21.90;99.90;;;;;;6125225;23;20192;-70
2022/07/11 08:28:56;;;;;;;1.30;1.30;;;22.30;99.90;;;;;;6125137;23;20490;-69
2022/07/11 08:31:23;;;;;;;1.30;1.20;;;22.80;99.90;;;;;;6125110;23;20229;-70
2022/07/11 08:33:49;;;;;;;1.10;1.00;;;23.20;99.90;;;;;;6125157;23;20146;-70
2022/07/11 08:36:14;;;;;;;1.40;0.95;;;23.30;99.90;;;;;;6124868;23;20158;-70
2022/07/11 08:38:43;;;;;;;2.22;1.30;;;23.50;99.90;;;;;;6124656;23;20158;-71
2022/07/11 08:41:11;;;;;;;1.42;0.90;;;23.20;99.90;;;;;;6125159;23;20176;-70
2022/07/11 08:43:36;;;;;;;1.75;1.40;;;23.00;99.90;;;;;;6125168;23;20166;-70
2022/07/11 08:46:02;;;;;;;1.50;1.30;;;22.80;99.90;;;;;;6125074;23;20174;-71
2022/07/11 08:48:29;;;;;;;1.52;1.42;;;23.00;99.90;;;;;;6124826;23;20150;-70
2022/07/11 08:50:55;;;;;;;1.02;0.98;;;23.20;99.90;;;;;;6125177;23;20177;-70
2022/07/11 08:53:20;;;;;;;1.63;1.40;;;23.10;99.90;;;;;;6125145;23;20150;-72
2022/07/11 08:55:47;;;;;;;0.90;0.90;;;23.50;99.90;;;;;;6124708;23;20154;-70
2022/07/11 08:58:13;;;;;;;1.13;1.02;;;23.80;99.90;;;;;;6124847;23;20150;-71
2022/07/11 09:00:42;;;;;;;2.97;1.25;;;24.10;99.90;;;;;;6124890;23;20504;-70
2022/07/11 09:03:13;;;;;;;0.93;0.93;;;24.30;99.40;;;;;;6125078;23;20153;-70
2022/07/11 09:05:39;;;;;;;1.10;1.08;;;24.30;99.00;;;;;;6124813;23;20170;-70
2022/07/11 09:08:05;;;;;;;1.63;0.82;;;24.70;98.20;;;;;;6124987;23;20164;-70
2022/07/11 09:10:30;;;;;;;2.08;1.10;;;24.70;97.60;;;;;;6124871;23;20169;-70
2022/07/11 09:13:04;;;;;;;1.23;1.10;;;24.70;97.70;;;;;;6125079;23;20134;-69
2022/07/11 09:15:40;;;;;;;3.25;1.25;;;25.00;96.70;;;;;;6124197;23;20138;-70
2022/07/11 09:18:28;;;;;;;1.42;1.27;;;24.50;96.00;;;;;;6124929;23;20193;-70
2022/07/11 09:26:34;;;;;;;1.45;0.77;;;23.30;98.50;;;;;;6124704;23;20240;-72
2022/07/11 09:29:13;;;;;;;0.85;0.70;;;23.00;99.60;;;;;;6124686;23;20130;-70
2022/07/11 09:31:44;;;;;;;0.85;0.85;;;22.60;99.90;;;;;;6124831;23;20197;-70
2022/07/11 09:34:15;;;;;;;0.77;0.77;;;22.60;99.90;;;;;;6124263;23;20130;-70
2022/07/11 09:36:44;;;;;;;0.93;0.93;;;22.60;99.90;;;;;;6124731;23;20170;-70
2022/07/11 09:39:15;;;;;;;0.88;0.85;;;22.60;99.90;;;;;;6124527;23;20157;-70
2022/07/11 09:41:41;;;;;;;1.23;0.75;;;22.70;99.90;;;;;;6124415;23;20178;-69
2022/07/11 09:44:10;;;;;;;0.63;0.50;;;23.00;99.40;;;;;;6124764;23;20154;-70
2022/07/11 09:46:37;;;;;;;0.68;0.50;;;23.30;98.40;;;;;;6124428;23;20178;-70
2022/07/11 09:49:03;;;;;;;0.60;0.60;;;24.20;96.60;;;;;;6124139;23;20600;-70
2022/07/11 09:51:31;;;;;;;0.60;0.52;;;25.00;94.90;;;;;;6124082;23;20193;-70
2022/07/11 09:53:58;;;;;;;0.82;0.55;;;25.60;93.10;;;;;;6124651;23;20160;-70
2022/07/11 09:56:41;;;;;;;1.08;0.40;;;25.70;92.10;;;;;;6124602;23;20150;-70
2022/07/11 09:59:10;;;;;;;0.70;0.47;;;25.60;90.40;;;;;;6124210;23;20145;-70
2022/07/11 10:01:37;;;;;;;0.40;0.40;;;24.90;90.90;;;;;;6124584;23;20174;-70
2022/07/11 10:04:05;;;;;;;0.45;0.45;;;24.60;91.90;;;;;;6124649;23;20150;-69
2022/07/11 10:06:31;;;;;;;0.68;0.68;;;24.20;92.00;;;;;;6123983;23;20181;-70
2022/07/11 10:08:56;;;;;;;2.92;0.60;;;23.50;92.70;;;;;;6124071;23;20150;-70
2022/07/11 10:11:22;;;;;;;0.82;0.80;;;22.80;93.80;;;;;;6124582;23;20654;-70
2022/07/11 10:13:48;;;;;;;0.60;0.60;;;22.20;96.40;;;;;;6124798;23;20225;-70
2022/07/11 10:16:56;;;;;;;1.60;0.77;;;21.40;99.30;;;;;;6124721;23;20197;-70
2022/07/11 10:19:50;;;;;;;0.82;0.82;;;20.80;99.90;;;;;;6051436;23;20188;-70
2022/07/11 10:22:18;;;;;;;0.50;0.50;;;20.20;99.90;;;;;;6113779;23;20551;-70
2022/07/11 10:24:58;;;;;;;0.63;0.63;;;20.00;99.90;;;;;;6124408;23;20183;-70
2022/07/11 10:27:28;;;;;;;3.28;1.17;;;19.70;99.90;;;;;;6098541;23;20181;-70
2022/07/11 10:29:54;;;;;;;1.35;0.60;;;19.60;99.90;;;;;;6123939;23;20170;-69
2022/07/11 10:32:20;;;;;;;0.45;0.45;;;19.70;99.90;;;;;;6124442;23;20150;-70
2022/07/11 10:34:49;;;;;;;0.28;0.28;;;20.00;99.90;;;;;;6125111;23;20161;-71
2022/07/11 10:37:14;;;;;;;0.55;0.55;;;20.80;99.90;;;;;;6126468;23;20156;-69
2022/07/11 10:39:57;;;;;;;1.17;0.47;;;21.80;99.90;;;;;;6125628;23;20153;-70
2022/07/11 10:42:41;;;;;;;0.57;0.40;;;23.10;99.90;;;;;;6126132;23;20162;-70
2022/07/11 10:45:11;;;;;;;0.50;0.50;;;23.80;99.90;;;;;;6126372;23;20536;-70
2022/07/11 10:47:44;;;;;;;0.55;0.47;;;24.10;99.90;;;;;;6126050;23;20158;-69
2022/07/11 10:50:21;;;;;;;0.40;0.40;;;24.00;99.90;;;;;;6125885;23;20221;-69
2022/07/11 10:52:49;;;;;;;0.68;0.68;;;23.70;99.90;;;;;;6100404;23;20177;-69
2022/07/11 10:55:47;;;;;;;0.73;0.73;;;23.40;99.80;;;;;;6126190;23;20589;-69
2022/07/11 10:58:25;;;;;;;0.60;0.60;;;23.00;96.90;;;;;;6108963;23;20162;-70
2022/07/11 11:01:11;;;;;;;0.30;0.30;;;23.10;97.50;;;;;;6125668;23;20173;-70
2022/07/11 11:03:38;;;;;;;0.60;0.60;;;23.40;96.90;;;;;;6126143;23;20230;-70
2022/07/11 11:06:03;;;;;;;0.50;0.50;;;23.60;97.10;;;;;;6125922;23;20180;-70
2022/07/11 11:08:32;;;;;;;0.52;0.52;;;24.20;96.80;;;;;;6125941;23;20134;-71
2022/07/11 11:10:59;;;;;;;0.40;0.40;;;25.00;95.60;;;;;;6126034;23;20170;-70
2022/07/11 11:13:26;;;;;;;0.35;0.30;;;25.70;94.00;;;;;;6125996;23;20153;-67
2022/07/11 11:15:56;;;;;;;0.68;0.40;;;26.30;91.20;;;;;;6125763;23;20158;-68
2022/07/11 11:18:25;;;;;;;0.22;0.22;;;27.10;87.60;;;;;;6125647;23;20166;-67
2022/07/11 11:21:02;;;;;;;0.20;0.20;;;27.10;82.30;;;;;;6125743;23;20177;-67
2022/07/11 11:23:29;;;;;;;0.10;0.10;;;27.20;78.90;;;;;;6125582;23;20224;-67
2022/07/11 11:26:03;;;;;;;1.27;0.30;;;28.00;75.50;;;;;;6125729;23;20193;-67
2022/07/11 11:28:29;;;;;;;0.50;0.25;;;29.00;72.50;;;;;;6125890;23;20166;-70
2022/07/11 11:30:56;;;;;;;0.10;0.10;;;30.00;69.30;;;;;;6125531;23;20221;-68
2022/07/11 11:33:24;;;;;;;0.63;0.45;;;30.60;64.70;;;;;;6125939;23;20146;-67
2022/07/11 11:36:05;;;;;;;1.20;0.38;;;31.40;61.80;;;;;;6125703;23;20154;-68
2022/07/11 11:38:36;;;;;;;0.60;0.60;;;31.80;59.70;;;;;;6124982;23;20153;-68
2022/07/11 11:41:02;;;;;;;3.00;2.67;;;32.00;58.40;;;;;;6125712;23;20180;-66
2022/07/11 11:43:27;;;;;;;0.90;0.90;;;31.90;57.40;;;;;;6125768;23;20150;-65
2022/07/11 11:45:54;;;;;;;0.20;0.20;;;31.80;58.50;;;;;;6125118;23;20297;-65
2022/07/11 11:48:33;;;;;;;0.30;0.30;;;32.80;55.60;;;;;;6125444;23;20146;-68
2022/07/11 11:51:02;;;;;;;0.40;0.40;;;33.70;54.70;;;;;;6125682;23;20165;-65
2022/07/11 11:53:29;;;;;;;0.43;0.10;;;33.70;52.60;;;;;;6125739;23;20146;-66
2022/07/11 11:55:55;;;;;;;0.03;0.03;;;33.00;53.40;;;;;;6125346;23;20622;-66
2022/07/11 11:58:20;;;;;;;0.50;0.40;;;32.50;54.50;;;;;;6125054;23;20157;-66
2022/07/11 12:00:56;;;;;;;0.28;0.28;;;32.30;54.80;;;;;;6125302;23;20224;-67
2022/07/11 12:03:21;;;;;;;0.10;0.10;;;31.40;54.80;;;;;;6125417;23;20149;-65
2022/07/11 12:05:57;;;;;;;0.35;0.32;;;30.30;56.70;;;;;;6125387;23;20173;-66
2022/07/11 12:08:29;;;;;;;0.32;0.32;;;29.30;58.30;;;;;;6125488;23;20152;-66
2022/07/11 12:10:55;;;;;;;0.30;0.30;;;28.60;60.90;;;;;;6099513;23;20185;-69
2022/07/11 12:13:21;;;;;;;0.95;0.32;;;28.00;61.80;;;;;;6125067;23;20228;-68
2022/07/11 12:18:37;;;;;;;2.30;0.40;;;26.80;63.90;;;;;;6125316;23;20224;-67
2022/07/11 12:21:12;;;;;;;0.63;0.30;;;26.70;65.30;;;;;;6125349;23;20170;-67
2022/07/11 12:23:39;;;;;;;0.30;0.30;;;26.80;65.90;;;;;;6125387;23;20603;-67
2022/07/11 12:26:05;;;;;;;0.68;0.30;;;27.20;66.90;;;;;;6125064;23;20220;-67
2022/07/11 12:28:32;;;;;;;0.38;0.20;;;27.70;64.40;;;;;;6125113;23;20487;-67
2022/07/11 12:30:58;;;;;;;0.70;0.47;;;28.40;65.00;;;;;;6124975;23;20616;-67
2022/07/11 12:33:24;;;;;;;0.40;0.40;;;29.20;64.00;;;;;;6124759;23;20178;-67
2022/07/11 12:35:57;;;;;;;0.80;0.10;;;30.40;61.40;;;;;;6125348;23;20149;-65
2022/07/11 12:38:23;;;;;;;0.22;0.20;;;31.70;59.70;;;;;;6125212;23;20157;-65
2022/07/11 12:41:03;;;;;;;0.20;0.20;;;33.80;56.60;;;;;;6124920;23;20169;-66
2022/07/11 12:46:31;;;;;;;0.20;0.20;;;36.70;50.50;;;;;;6125237;23;20176;-65
2022/07/11 12:49:00;;;;;;;0.73;0.30;;;37.30;47.60;;;;;;6124643;23;20280;-66
2022/07/11 12:51:35;;;;;;;0.55;0.30;;;37.70;48.00;;;;;;6124646;23;20521;-67
2022/07/11 12:54:02;;;;;;;1.45;0.52;;;38.30;46.20;;;;;;6125010;23;20476;-66
2022/07/11 12:56:28;;;;;;;0.25;0.25;;;38.90;45.40;;;;;;6124676;23;20150;-66
2022/07/11 12:58:54;;;;;;;1.33;0.28;;;38.60;44.00;;;;;;6124595;23;20439;-65
2022/07/11 13:01:19;;;;;;;0.40;0.40;;;37.00;46.20;;;;;;6124863;23;20224;-65
2022/07/11 13:03:45;;;;;;;0.40;0.40;;;35.70;47.10;;;;;;6124720;23;20215;-65